createdAt,value
2022-12-06T00:00:14.828Z,6.17
2022-12-06T00:02:46.565Z,6.03
2022-12-06T00:05:17.821Z,6.27
2022-12-06T00:07:49.636Z,6.38
2022-12-06T00:10:20.068Z,6.44
2022-12-06T00:12:50.344Z,6.43
2022-12-06T00:15:20.498Z,6.54
2022-12-06T00:17:50.749Z,6.36
2022-12-06T00:20:20.971Z,6.54
2022-12-06T00:22:51.403Z,6.60
2022-12-06T00:25:21.640Z,6.45
2022-12-06T00:27:52.997Z,6.58
2022-12-06T00:30:23.140Z,6.66
2022-12-06T00:32:53.300Z,6.58
2022-12-06T00:35:23.450Z,6.67
2022-12-06T00:37:53.662Z,6.60
2022-12-06T00:40:24.971Z,6.21
2022-12-06T00:42:55.152Z,6.46
2022-12-06T00:45:25.365Z,6.63
2022-12-06T00:47:55.543Z,6.49
2022-12-06T00:50:26.767Z,6.43
2022-12-06T00:52:58.023Z,6.28
2022-12-06T00:55:28.194Z,6.05
2022-12-06T00:57:58.502Z,6.27
2022-12-06T01:00:28.673Z,6.34
2022-12-06T01:03:00.021Z,6.15
2022-12-06T01:05:30.696Z,6.15
2022-12-06T01:08:01.366Z,6.40
2022-12-06T01:10:31.512Z,6.50
2022-12-06T01:13:01.650Z,6.42
2022-12-06T01:15:32.289Z,6.36
2022-12-06T01:18:02.613Z,6.45
2022-12-06T01:20:32.913Z,6.51
2022-12-06T01:23:03.162Z,6.58
2022-12-06T01:25:36.477Z,6.41
2022-12-06T01:28:07.799Z,6.48
2022-12-06T01:30:41.045Z,6.46
2022-12-06T01:33:11.374Z,6.56
2022-12-06T01:35:43.112Z,6.55
2022-12-06T01:38:13.559Z,6.47
2022-12-06T01:40:49.506Z,6.48
2022-12-06T01:43:43.680Z,6.64
2022-12-06T01:46:32.389Z,6.55
2022-12-06T01:49:14.127Z,6.60
2022-12-06T01:51:47.467Z,6.53
2022-12-06T01:54:20.409Z,6.61
2022-12-06T01:56:52.402Z,6.43
2022-12-06T01:59:24.826Z,6.27
2022-12-06T02:01:56.115Z,6.37
2022-12-06T02:04:28.128Z,6.47
2022-12-06T02:07:00.459Z,6.32
2022-12-06T02:09:32.097Z,6.30
2022-12-06T02:12:02.400Z,6.50
2022-12-06T02:14:35.676Z,6.46
2022-12-06T02:17:20.671Z,6.37
2022-12-06T02:20:11.770Z,6.56
2022-12-06T02:23:07.729Z,6.65
2022-12-06T02:25:50.072Z,6.43
2022-12-06T02:28:35.720Z,6.71
2022-12-06T02:31:20.337Z,6.49
2022-12-06T02:33:55.971Z,6.55
2022-12-06T02:36:45.848Z,7.24
2022-12-06T02:39:37.690Z,6.57
2022-12-06T02:42:12.615Z,6.61
2022-12-06T02:44:48.620Z,6.65
2022-12-06T02:47:26.962Z,6.48
2022-12-06T02:50:02.345Z,6.32
2022-12-06T02:52:36.363Z,6.37
2022-12-06T02:55:10.356Z,6.45
2022-12-06T02:57:53.272Z,6.47
2022-12-06T03:00:31.689Z,6.51
2022-12-06T03:03:32.643Z,6.30
2022-12-06T03:06:09.336Z,6.53
2022-12-06T03:09:09.601Z,6.66
2022-12-06T03:12:12.360Z,6.61
2022-12-06T03:14:51.734Z,6.72
2022-12-06T03:17:41.606Z,6.82
2022-12-06T03:20:17.242Z,6.89
2022-12-06T03:22:55.568Z,6.94
2022-12-06T03:25:30.313Z,6.94
2022-12-06T03:28:04.518Z,7.03
2022-12-06T03:30:40.941Z,6.98
2022-12-06T03:33:17.049Z,6.83
2022-12-06T03:35:52.562Z,6.98
2022-12-06T03:38:40.505Z,6.98
2022-12-06T03:41:14.112Z,7.00
2022-12-06T03:43:46.571Z,6.86
2022-12-06T03:46:21.942Z,6.91
2022-12-06T03:48:56.173Z,6.93
2022-12-06T03:51:30.010Z,6.98
2022-12-06T03:54:03.702Z,6.90
2022-12-06T03:56:37.630Z,6.91
2022-12-06T03:59:11.835Z,6.80
2022-12-06T04:01:50.066Z,6.84
2022-12-06T04:04:26.385Z,6.87
2022-12-06T04:06:58.147Z,6.88
2022-12-06T04:09:47.113Z,6.70
2022-12-06T04:12:39.289Z,6.83
2022-12-06T04:15:11.697Z,6.82
2022-12-06T04:18:03.761Z,6.74
2022-12-06T04:20:37.567Z,6.85
2022-12-06T04:23:13.440Z,6.91
2022-12-06T04:25:48.498Z,7.24
2022-12-06T04:28:54.156Z,7.11
2022-12-06T04:31:43.937Z,7.01
2022-12-06T04:34:33.675Z,6.87
2022-12-06T04:37:23.079Z,6.79
2022-12-06T04:40:00.285Z,6.74
2022-12-06T04:42:52.301Z,6.74
2022-12-06T04:45:24.574Z,6.78
2022-12-06T04:47:59.934Z,6.75
2022-12-06T04:50:33.175Z,6.68
2022-12-06T04:53:07.981Z,6.77
2022-12-06T04:55:40.841Z,6.98
2022-12-06T04:58:14.447Z,6.95
2022-12-06T05:00:48.925Z,6.94
2022-12-06T05:03:21.663Z,7.06
2022-12-06T05:05:54.784Z,6.96
2022-12-06T05:08:28.376Z,6.89
2022-12-06T05:11:02.235Z,6.85
2022-12-06T05:13:37.015Z,6.88
2022-12-06T05:16:11.593Z,6.83
2022-12-06T05:18:46.464Z,6.92
2022-12-06T05:21:21.466Z,6.92
2022-12-06T05:23:56.897Z,6.65
2022-12-06T05:26:29.591Z,6.83
2022-12-06T05:29:02.341Z,6.85
2022-12-06T05:31:53.351Z,6.69
2022-12-06T05:34:25.642Z,6.77
2022-12-06T05:37:00.886Z,6.93
2022-12-06T05:39:34.233Z,6.82
2022-12-06T05:42:06.917Z,6.85
2022-12-06T05:44:44.463Z,6.83
2022-12-06T05:47:19.436Z,6.95
2022-12-06T05:49:54.972Z,6.96
2022-12-06T05:52:27.856Z,7.08
2022-12-06T05:55:00.877Z,7.09
2022-12-06T05:57:32.062Z,6.94
2022-12-06T06:00:04.476Z,7.16
2022-12-06T06:02:42.043Z,7.05
2022-12-06T06:05:26.119Z,7.06
2022-12-06T06:08:04.899Z,7.09
2022-12-06T06:10:41.253Z,7.03
2022-12-06T06:13:14.867Z,7.01
2022-12-06T06:15:49.262Z,7.01
2022-12-06T06:18:24.485Z,6.95
2022-12-06T06:20:58.745Z,6.92
2022-12-06T06:23:32.871Z,6.90
2022-12-06T06:26:11.505Z,7.03
2022-12-06T06:28:43.916Z,7.09
2022-12-06T06:31:17.442Z,7.11
2022-12-06T06:33:51.112Z,7.15
2022-12-06T06:36:30.319Z,7.23
2022-12-06T06:39:02.363Z,7.27
2022-12-06T06:41:34.008Z,7.07
2022-12-06T06:44:06.321Z,7.18
2022-12-06T06:46:40.913Z,7.20
2022-12-06T06:49:13.890Z,7.21
2022-12-06T06:51:50.896Z,7.21
2022-12-06T06:54:26.364Z,7.24
2022-12-06T06:57:03.826Z,7.36
2022-12-06T06:59:37.427Z,7.40
2022-12-06T07:02:17.435Z,7.37
2022-12-06T07:10:38.770Z,7.50
2022-12-06T07:13:10.542Z,7.20
2022-12-06T07:15:44.256Z,7.08
2022-12-06T07:18:18.557Z,7.18
2022-12-06T07:20:52.125Z,7.21
2022-12-06T07:23:26.544Z,7.27
2022-12-06T07:26:13.921Z,7.27
2022-12-06T07:28:47.696Z,7.27
2022-12-06T07:31:22.301Z,7.42
2022-12-06T07:33:57.339Z,7.42
2022-12-06T07:36:32.670Z,7.34
2022-12-06T07:39:14.314Z,7.23
2022-12-06T07:42:01.080Z,7.17
2022-12-06T07:44:55.575Z,7.39
2022-12-06T07:47:26.833Z,7.44
2022-12-06T07:50:04.160Z,7.34
2022-12-06T07:52:37.683Z,7.31
2022-12-06T07:55:13.344Z,7.48
2022-12-06T07:57:50.048Z,7.47
2022-12-06T08:00:24.872Z,7.53
2022-12-06T08:02:58.579Z,7.51
2022-12-06T08:05:33.214Z,7.55
2022-12-06T08:08:05.688Z,7.89
2022-12-06T08:10:37.282Z,7.79
2022-12-06T08:13:09.524Z,7.64
2022-12-06T08:15:46.133Z,7.53
2022-12-06T08:18:23.168Z,7.59
2022-12-06T08:20:55.022Z,7.40
2022-12-06T08:23:33.851Z,7.51
2022-12-06T08:26:09.949Z,7.36
2022-12-06T08:28:42.778Z,7.28
2022-12-06T08:31:19.275Z,7.40
2022-12-06T08:33:54.983Z,7.46
2022-12-06T08:39:20.175Z,7.48
2022-12-06T08:45:02.118Z,7.40
2022-12-06T08:47:35.057Z,7.28
2022-12-06T08:50:10.001Z,7.40
2022-12-06T08:52:41.535Z,7.55
2022-12-06T08:55:15.481Z,7.61
2022-12-06T08:57:48.068Z,7.53
2022-12-06T09:00:21.674Z,7.29
2022-12-06T09:02:56.981Z,7.46
2022-12-06T09:05:30.797Z,7.30
2022-12-06T09:08:01.912Z,7.36
2022-12-06T09:10:34.606Z,7.51
2022-12-06T09:13:06.255Z,7.60
2022-12-06T09:15:41.988Z,7.61
2022-12-06T09:21:11.224Z,7.98
2022-12-06T09:23:46.773Z,7.87
2022-12-06T09:26:20.862Z,7.77
2022-12-06T09:28:59.657Z,7.78
2022-12-06T09:31:31.561Z,7.75
2022-12-06T09:34:04.368Z,7.86
2022-12-06T09:36:38.889Z,7.81
2022-12-06T09:39:35.787Z,7.85
2022-12-06T09:42:19.169Z,7.90
2022-12-06T09:45:07.167Z,7.74
2022-12-06T09:47:53.203Z,8.17
2022-12-06T09:50:38.272Z,8.06
2022-12-06T09:53:26.078Z,7.90
2022-12-06T09:56:28.739Z,7.95
2022-12-06T09:59:24.212Z,7.92
2022-12-06T10:02:28.578Z,8.01
2022-12-06T10:05:17.857Z,7.99
2022-12-06T10:08:22.313Z,7.91
2022-12-06T10:11:19.008Z,7.87
2022-12-06T10:14:06.765Z,7.96
2022-12-06T10:16:55.363Z,7.96
2022-12-06T10:19:45.142Z,7.90
2022-12-06T10:22:33.725Z,7.98
2022-12-06T10:25:15.544Z,7.88
2022-12-06T10:28:11.515Z,7.95
2022-12-06T10:30:57.362Z,8.00
2022-12-06T10:33:47.366Z,7.97
2022-12-06T10:36:41.124Z,8.01
2022-12-06T10:39:33.927Z,7.94
2022-12-06T10:42:08.912Z,7.83
2022-12-06T10:44:46.892Z,7.99
2022-12-06T10:47:23.493Z,7.90
2022-12-06T10:50:08.198Z,7.97
2022-12-06T10:52:41.682Z,7.89
2022-12-06T10:55:18.070Z,8.26
2022-12-06T10:57:57.835Z,8.04
2022-12-06T11:00:35.775Z,7.91
2022-12-06T11:03:18.173Z,7.90
2022-12-06T11:05:58.687Z,8.05
2022-12-06T11:08:44.987Z,8.02
2022-12-06T11:11:20.647Z,7.95
2022-12-06T11:13:56.391Z,8.01
2022-12-06T11:16:34.148Z,8.02
2022-12-06T11:19:29.565Z,8.09
2022-12-06T11:22:16.287Z,8.16
2022-12-06T11:27:47.512Z,8.43
2022-12-06T11:30:20.993Z,8.23
2022-12-06T11:32:53.658Z,8.23
2022-12-06T11:35:27.001Z,8.26
2022-12-06T11:38:00.360Z,8.11
2022-12-06T11:40:36.833Z,8.16
2022-12-06T11:43:09.898Z,8.20
2022-12-06T11:45:43.637Z,8.08
2022-12-06T11:48:22.938Z,8.02
2022-12-06T11:50:55.037Z,8.06
2022-12-06T11:53:28.577Z,8.16
2022-12-06T11:56:01.854Z,8.16
2022-12-06T11:58:41.309Z,8.16
2022-12-06T12:01:14.715Z,8.11
2022-12-06T12:03:48.440Z,8.12
2022-12-06T12:06:24.639Z,8.09
2022-12-06T12:09:09.539Z,8.17
2022-12-06T12:11:43.097Z,8.09
2022-12-06T12:14:22.067Z,8.60
2022-12-06T12:16:56.623Z,8.43
2022-12-06T12:19:35.826Z,8.00
2022-12-06T12:22:36.629Z,8.09
2022-12-06T12:25:28.345Z,7.97
2022-12-06T12:28:05.032Z,8.18
2022-12-06T12:30:40.094Z,8.18
2022-12-06T12:33:16.898Z,8.29
2022-12-06T12:35:53.545Z,8.25
2022-12-06T12:38:32.895Z,8.23
2022-12-06T12:41:07.785Z,8.22
2022-12-06T12:43:38.306Z,8.31
2022-12-06T12:46:20.972Z,8.31
2022-12-06T12:48:52.577Z,8.22
2022-12-06T12:51:31.808Z,8.19
2022-12-06T12:54:22.225Z,8.16
2022-12-06T12:56:53.449Z,8.09
2022-12-06T12:59:27.664Z,8.18
2022-12-06T13:02:23.862Z,8.06
2022-12-06T13:05:17.400Z,8.09
2022-12-06T13:07:33.088Z,8.20
2022-12-06T13:10:14.933Z,8.15
2022-12-06T13:12:51.191Z,8.09
2022-12-06T13:15:47.550Z,8.07
2022-12-06T13:18:30.115Z,8.03
2022-12-06T13:21:04.682Z,8.13
2022-12-06T13:23:38.790Z,8.11
2022-12-06T13:26:30.125Z,8.12
2022-12-06T13:29:03.509Z,8.16
2022-12-06T13:31:38.462Z,8.23
2022-12-06T13:34:23.807Z,8.23
2022-12-06T13:36:54.246Z,8.12
2022-12-06T13:39:33.439Z,8.17
2022-12-06T13:42:19.008Z,8.08
2022-12-06T13:44:55.563Z,8.13
2022-12-06T13:47:32.033Z,8.08
2022-12-06T13:50:05.521Z,8.22
2022-12-06T13:52:48.282Z,8.21
2022-12-06T13:55:30.735Z,8.20
2022-12-06T13:58:07.128Z,8.20
2022-12-06T14:00:46.399Z,8.22
2022-12-06T14:03:20.965Z,8.17
2022-12-06T14:06:15.716Z,8.21
2022-12-06T14:08:56.568Z,8.04
2022-12-06T14:11:29.467Z,8.19
2022-12-06T14:14:03.131Z,8.13
2022-12-06T14:16:46.677Z,7.93
2022-12-06T14:19:23.848Z,7.98
2022-12-06T14:21:57.300Z,7.98
2022-12-06T14:24:33.260Z,8.01
2022-12-06T14:27:18.941Z,7.86
2022-12-06T14:30:30.564Z,7.79
2022-12-06T14:32:55.441Z,7.97
2022-12-06T14:35:40.222Z,7.94
2022-12-06T14:38:31.456Z,7.91
2022-12-06T14:41:22.941Z,7.96
2022-12-06T14:43:57.253Z,8.01
2022-12-06T14:46:50.790Z,7.86
2022-12-06T14:49:43.685Z,7.86
2022-12-06T14:52:24.104Z,7.78
2022-12-06T14:55:00.201Z,7.91
2022-12-06T14:57:40.925Z,8.03
2022-12-06T15:00:27.484Z,7.87
2022-12-06T15:03:13.305Z,7.98
2022-12-06T15:05:49.032Z,7.83
2022-12-06T15:08:32.617Z,7.86
2022-12-06T15:11:18.450Z,7.90
2022-12-06T15:13:54.603Z,7.95
2022-12-06T15:16:26.924Z,7.91
2022-12-06T15:19:04.278Z,7.90
2022-12-06T15:21:36.303Z,7.73
2022-12-06T15:24:20.030Z,7.90
2022-12-06T15:26:54.621Z,7.92
2022-12-06T15:29:29.329Z,7.94
2022-12-06T15:32:00.752Z,7.84
2022-12-06T15:34:36.261Z,7.84
2022-12-06T15:39:55.155Z,8.06
2022-12-06T15:42:36.484Z,8.02
2022-12-06T15:45:13.839Z,7.93
2022-12-06T15:47:48.512Z,7.92
2022-12-06T15:50:22.362Z,7.90
2022-12-06T15:52:57.046Z,7.84
2022-12-06T15:55:28.520Z,7.72
2022-12-06T15:58:02.199Z,7.77
2022-12-06T16:00:34.905Z,7.84
2022-12-06T16:03:10.014Z,7.77
2022-12-06T16:05:44.858Z,7.85
2022-12-06T16:08:17.673Z,7.87
2022-12-06T16:11:15.538Z,7.78
2022-12-06T16:13:34.274Z,7.71
2022-12-06T16:16:07.105Z,7.86
2022-12-06T16:18:39.112Z,7.91
2022-12-06T16:21:12.003Z,7.70
2022-12-06T16:24:14.870Z,7.70
2022-12-06T16:26:47.989Z,7.78
2022-12-06T16:29:27.238Z,7.83
2022-12-06T16:31:58.734Z,7.73
2022-12-06T16:34:31.468Z,7.71
2022-12-06T16:37:09.456Z,7.80
2022-12-06T16:39:41.175Z,8.06
2022-12-06T16:42:12.099Z,7.97
2022-12-06T16:44:45.815Z,7.89
2022-12-06T16:47:18.162Z,7.91
2022-12-06T16:49:53.213Z,7.93
2022-12-06T16:52:26.409Z,7.84
2022-12-06T16:55:01.858Z,7.81
2022-12-06T16:57:34.646Z,7.63
2022-12-06T17:00:10.398Z,7.73
2022-12-06T17:02:46.299Z,7.81
2022-12-06T17:05:24.248Z,7.71
2022-12-06T17:07:57.462Z,7.70
2022-12-06T17:10:48.781Z,7.71
2022-12-06T17:13:26.264Z,7.86
2022-12-06T17:16:00.926Z,7.72
2022-12-06T17:18:35.457Z,7.77
2022-12-06T17:21:14.368Z,7.72
2022-12-06T17:23:43.945Z,7.78
2022-12-06T17:26:15.813Z,7.79
2022-12-06T17:28:47.671Z,7.71
2022-12-06T17:31:20.582Z,7.66
2022-12-06T17:33:53.797Z,7.73
2022-12-06T17:36:27.425Z,7.69
2022-12-06T17:39:00.404Z,7.66
2022-12-06T17:41:52.094Z,7.58
2022-12-06T17:44:25.978Z,7.61
2022-12-06T17:47:00.047Z,7.71
2022-12-06T17:49:32.701Z,7.60
2022-12-06T17:52:05.415Z,7.56
2022-12-06T17:54:37.370Z,7.35
2022-12-06T17:57:12.068Z,7.45
2022-12-06T17:59:42.967Z,7.48
2022-12-06T18:02:19.222Z,7.46
2022-12-06T18:04:56.090Z,7.51
2022-12-06T18:07:27.214Z,7.59
2022-12-06T18:10:00.555Z,7.48
2022-12-06T18:12:31.983Z,7.62
2022-12-06T18:15:09.867Z,7.63
2022-12-06T18:17:44.185Z,7.51
2022-12-06T18:20:16.793Z,7.39
2022-12-06T18:22:50.594Z,7.49
2022-12-06T18:25:22.846Z,7.45
2022-12-06T18:27:57.117Z,7.43
2022-12-06T18:30:35.265Z,7.47
2022-12-06T18:33:06.520Z,7.51
2022-12-06T18:35:38.896Z,7.53
2022-12-06T18:38:10.790Z,7.51
2022-12-06T18:40:43.747Z,7.37
2022-12-06T18:43:15.826Z,7.56
2022-12-06T18:45:48.801Z,7.45
2022-12-06T18:48:22.532Z,7.57
2022-12-06T18:50:55.801Z,7.61
2022-12-06T18:53:32.159Z,7.34
2022-12-06T18:56:12.031Z,7.54
2022-12-06T18:58:46.384Z,7.58
2022-12-06T19:01:21.221Z,7.52
2022-12-06T19:03:56.527Z,7.47
2022-12-06T19:06:33.545Z,7.30
2022-12-06T19:09:08.104Z,7.45
2022-12-06T19:11:42.635Z,7.51
2022-12-06T19:14:15.397Z,7.11
2022-12-06T19:16:51.797Z,7.24
2022-12-06T19:19:26.117Z,7.29
2022-12-06T19:21:58.434Z,7.21
2022-12-06T19:24:38.385Z,7.39
2022-12-06T19:27:10.086Z,7.34
2022-12-06T19:29:46.396Z,7.29
2022-12-06T19:32:21.284Z,7.12
2022-12-06T19:35:13.575Z,7.24
2022-12-06T19:37:45.619Z,7.13
2022-12-06T19:40:20.159Z,7.17
2022-12-06T19:43:10.718Z,7.04
2022-12-06T19:45:41.221Z,6.90
2022-12-06T19:48:13.006Z,6.88
2022-12-06T19:50:49.372Z,6.99
2022-12-06T19:53:21.645Z,6.65
2022-12-06T19:55:54.271Z,7.06
2022-12-06T19:58:25.992Z,6.98
2022-12-06T20:00:59.158Z,7.08
2022-12-06T20:03:31.290Z,6.93
2022-12-06T20:06:07.712Z,6.93
2022-12-06T20:08:40.106Z,6.97
2022-12-06T20:11:16.460Z,6.95
2022-12-06T20:13:48.149Z,6.97
2022-12-06T20:16:22.922Z,7.00
2022-12-06T20:18:59.485Z,6.98
2022-12-06T20:21:32.221Z,6.93
2022-12-06T20:24:06.198Z,6.95
2022-12-06T20:26:39.539Z,6.92
2022-12-06T20:29:12.184Z,7.09
2022-12-06T20:31:44.818Z,6.92
2022-12-06T20:34:17.842Z,6.96
2022-12-06T20:36:48.812Z,6.82
2022-12-06T20:39:27.106Z,6.97
2022-12-06T20:41:59.672Z,7.02
2022-12-06T20:44:32.881Z,6.97
2022-12-06T20:47:05.779Z,6.95
2022-12-06T20:49:46.074Z,6.79
2022-12-06T20:52:17.676Z,7.04
2022-12-06T20:55:09.281Z,6.69
2022-12-06T20:57:43.997Z,6.98
2022-12-06T21:00:15.546Z,7.00
2022-12-06T21:02:47.598Z,6.81
2022-12-06T21:05:20.645Z,6.43
2022-12-06T21:07:53.576Z,6.63
2022-12-06T21:10:26.308Z,6.80
2022-12-06T21:13:02.759Z,6.79
2022-12-06T21:15:31.844Z,6.82
2022-12-06T21:18:17.346Z,6.60
2022-12-06T21:20:52.005Z,6.72
2022-12-06T21:23:25.732Z,6.50
2022-12-06T21:26:07.887Z,6.40
2022-12-06T21:28:39.640Z,6.63
2022-12-06T21:31:12.553Z,6.78
2022-12-06T21:33:46.206Z,6.76
2022-12-06T21:36:20.883Z,6.83
2022-12-06T21:38:54.364Z,6.58
2022-12-06T21:41:28.220Z,6.53
2022-12-06T21:44:13.879Z,6.45
2022-12-06T21:46:47.696Z,6.53
2022-12-06T21:49:23.173Z,6.40
2022-12-06T21:52:03.146Z,6.73
2022-12-06T21:54:33.430Z,6.66
2022-12-06T21:57:05.068Z,6.37
2022-12-06T21:59:37.675Z,6.65
2022-12-06T22:02:14.037Z,6.63
2022-12-06T22:04:46.009Z,6.49
2022-12-06T22:07:19.458Z,6.60
2022-12-06T22:09:55.620Z,6.55
2022-12-06T22:12:37.661Z,6.60
2022-12-06T22:15:10.544Z,6.10
2022-12-06T22:17:43.956Z,6.41
2022-12-06T22:20:18.959Z,6.30
2022-12-06T22:22:55.453Z,6.29
2022-12-06T22:25:29.930Z,6.41
2022-12-06T22:28:01.276Z,6.29
2022-12-06T22:30:34.783Z,6.53
2022-12-06T22:33:07.107Z,6.30
2022-12-06T22:35:42.237Z,6.18
2022-12-06T22:38:16.965Z,6.37
2022-12-06T22:40:52.051Z,6.37
2022-12-06T22:43:26.645Z,6.45
2022-12-06T22:46:00.531Z,6.13
2022-12-06T22:48:36.037Z,6.45
2022-12-06T22:51:17.935Z,6.33
2022-12-06T22:53:52.401Z,6.51
2022-12-06T22:56:24.939Z,6.46
2022-12-06T22:59:02.265Z,6.46
2022-12-06T23:01:36.442Z,6.51
2022-12-06T23:04:13.569Z,6.58
2022-12-06T23:06:46.694Z,6.43
2022-12-06T23:09:21.030Z,6.38
2022-12-06T23:11:54.343Z,6.46
2022-12-06T23:14:37.812Z,6.49
2022-12-06T23:17:10.753Z,6.30
2022-12-06T23:19:44.302Z,6.44
2022-12-06T23:22:16.338Z,6.13
2022-12-06T23:24:52.331Z,6.21
2022-12-06T23:27:26.882Z,6.34
2022-12-06T23:30:17.397Z,6.18
2022-12-06T23:32:49.780Z,6.28
2022-12-06T23:35:23.109Z,6.14
2022-12-06T23:37:54.484Z,6.18
2022-12-06T23:40:24.824Z,6.20
2022-12-06T23:42:55.102Z,6.09
2022-12-06T23:45:25.380Z,5.90
2022-12-06T23:47:57.417Z,6.17
2022-12-06T23:50:27.655Z,5.99
2022-12-06T23:52:57.944Z,6.18
2022-12-06T23:55:28.353Z,5.94
2022-12-06T23:57:58.617Z,5.99
